sensor_id;sensor_type;location;lat;lon;timestamp;P1;durP1;ratioP1;P2;durP2;ratioP2
21681;SDS011;11002;48.256;10.084;2023-12-28T00:00:39;4.93;;;2.13;;
21681;SDS011;11002;48.256;10.084;2023-12-28T00:03:06;4.60;;;2.92;;
21681;SDS011;11002;48.256;10.084;2023-12-28T00:05:33;3.92;;;2.40;;
21681;SDS011;11002;48.256;10.084;2023-12-28T00:08:02;3.38;;;2.30;;
21681;SDS011;11002;48.256;10.084;2023-12-28T00:10:29;4.78;;;2.45;;
21681;SDS011;11002;48.256;10.084;2023-12-28T00:12:56;5.43;;;2.38;;
21681;SDS011;11002;48.256;10.084;2023-12-28T00:15:24;4.20;;;2.55;;
21681;SDS011;11002;48.256;10.084;2023-12-28T00:17:51;4.22;;;2.72;;
21681;SDS011;11002;48.256;10.084;2023-12-28T00:20:18;5.65;;;2.70;;
21681;SDS011;11002;48.256;10.084;2023-12-28T00:22:45;3.47;;;2.40;;
21681;SDS011;11002;48.256;10.084;2023-12-28T00:25:14;7.03;;;3.28;;
21681;SDS011;11002;48.256;10.084;2023-12-28T00:27:41;3.00;;;2.17;;
21681;SDS011;11002;48.256;10.084;2023-12-28T00:30:11;4.55;;;2.55;;
21681;SDS011;11002;48.256;10.084;2023-12-28T00:32:39;7.25;;;2.97;;
21681;SDS011;11002;48.256;10.084;2023-12-28T00:35:08;3.88;;;2.30;;
21681;SDS011;11002;48.256;10.084;2023-12-28T00:37:36;3.22;;;2.20;;
21681;SDS011;11002;48.256;10.084;2023-12-28T00:40:03;4.65;;;2.60;;
21681;SDS011;11002;48.256;10.084;2023-12-28T00:42:33;4.53;;;2.60;;
21681;SDS011;11002;48.256;10.084;2023-12-28T00:45:00;4.25;;;3.03;;
21681;SDS011;11002;48.256;10.084;2023-12-28T00:47:27;3.90;;;2.22;;
21681;SDS011;11002;48.256;10.084;2023-12-28T00:49:55;3.70;;;2.47;;
21681;SDS011;11002;48.256;10.084;2023-12-28T00:52:22;3.10;;;1.98;;
21681;SDS011;11002;48.256;10.084;2023-12-28T00:54:49;5.80;;;2.60;;
21681;SDS011;11002;48.256;10.084;2023-12-28T00:57:16;3.95;;;2.35;;
21681;SDS011;11002;48.256;10.084;2023-12-28T00:59:45;4.55;;;2.20;;
21681;SDS011;11002;48.256;10.084;2023-12-28T01:02:12;5.68;;;2.85;;
21681;SDS011;11002;48.256;10.084;2023-12-28T01:04:39;5.80;;;3.08;;
21681;SDS011;11002;48.256;10.084;2023-12-28T01:07:07;6.10;;;2.50;;
21681;SDS011;11002;48.256;10.084;2023-12-28T01:09:34;3.88;;;2.50;;
21681;SDS011;11002;48.256;10.084;2023-12-28T01:12:02;6.68;;;2.50;;
21681;SDS011;11002;48.256;10.084;2023-12-28T01:14:30;3.08;;;2.50;;
21681;SDS011;11002;48.256;10.084;2023-12-28T01:16:59;4.03;;;2.33;;
21681;SDS011;11002;48.256;10.084;2023-12-28T01:19:26;4.00;;;2.78;;
21681;SDS011;11002;48.256;10.084;2023-12-28T01:21:53;3.47;;;2.80;;
21681;SDS011;11002;48.256;10.084;2023-12-28T01:24:21;4.22;;;2.40;;
21681;SDS011;11002;48.256;10.084;2023-12-28T01:26:49;3.92;;;2.72;;
21681;SDS011;11002;48.256;10.084;2023-12-28T01:29:16;7.70;;;2.95;;
21681;SDS011;11002;48.256;10.084;2023-12-28T01:31:44;4.63;;;2.92;;
21681;SDS011;11002;48.256;10.084;2023-12-28T01:34:12;6.05;;;2.40;;
21681;SDS011;11002;48.256;10.084;2023-12-28T01:36:40;4.78;;;2.63;;
21681;SDS011;11002;48.256;10.084;2023-12-28T01:39:09;4.53;;;2.40;;
21681;SDS011;11002;48.256;10.084;2023-12-28T01:41:39;3.42;;;1.70;;
21681;SDS011;11002;48.256;10.084;2023-12-28T01:44:06;5.28;;;2.15;;
21681;SDS011;11002;48.256;10.084;2023-12-28T01:46:33;3.40;;;1.92;;
21681;SDS011;11002;48.256;10.084;2023-12-28T01:49:01;5.85;;;2.55;;
21681;SDS011;11002;48.256;10.084;2023-12-28T01:51:30;3.63;;;2.70;;
21681;SDS011;11002;48.256;10.084;2023-12-28T01:53:58;4.35;;;3.05;;
21681;SDS011;11002;48.256;10.084;2023-12-28T01:56:26;4.03;;;2.50;;
21681;SDS011;11002;48.256;10.084;2023-12-28T01:58:54;6.18;;;3.05;;
21681;SDS011;11002;48.256;10.084;2023-12-28T02:01:21;8.27;;;3.13;;
21681;SDS011;11002;48.256;10.084;2023-12-28T02:03:51;3.72;;;2.65;;
21681;SDS011;11002;48.256;10.084;2023-12-28T02:06:18;3.60;;;2.15;;
21681;SDS011;11002;48.256;10.084;2023-12-28T02:08:50;5.78;;;2.78;;
21681;SDS011;11002;48.256;10.084;2023-12-28T02:11:18;3.47;;;2.55;;
21681;SDS011;11002;48.256;10.084;2023-12-28T02:13:46;3.50;;;2.70;;
21681;SDS011;11002;48.256;10.084;2023-12-28T02:16:15;2.88;;;2.58;;
21681;SDS011;11002;48.256;10.084;2023-12-28T02:18:47;9.93;;;3.10;;
21681;SDS011;11002;48.256;10.084;2023-12-28T02:21:16;4.47;;;2.83;;
21681;SDS011;11002;48.256;10.084;2023-12-28T02:23:46;4.63;;;2.38;;
21681;SDS011;11002;48.256;10.084;2023-12-28T02:26:16;3.50;;;1.98;;
21681;SDS011;11002;48.256;10.084;2023-12-28T02:28:43;3.22;;;2.10;;
21681;SDS011;11002;48.256;10.084;2023-12-28T02:31:14;3.80;;;2.10;;
21681;SDS011;11002;48.256;10.084;2023-12-28T02:33:48;3.90;;;1.75;;
21681;SDS011;11002;48.256;10.084;2023-12-28T02:36:22;4.35;;;1.92;;
21681;SDS011;11002;48.256;10.084;2023-12-28T02:38:50;3.33;;;2.30;;
21681;SDS011;11002;48.256;10.084;2023-12-28T02:41:22;5.18;;;2.58;;
21681;SDS011;11002;48.256;10.084;2023-12-28T02:43:51;4.25;;;2.45;;
21681;SDS011;11002;48.256;10.084;2023-12-28T02:46:18;3.97;;;2.30;;
21681;SDS011;11002;48.256;10.084;2023-12-28T02:48:48;3.55;;;2.22;;
21681;SDS011;11002;48.256;10.084;2023-12-28T02:51:18;3.55;;;2.38;;
21681;SDS011;11002;48.256;10.084;2023-12-28T02:53:45;6.72;;;2.42;;
21681;SDS011;11002;48.256;10.084;2023-12-28T02:56:12;3.28;;;2.35;;
21681;SDS011;11002;48.256;10.084;2023-12-28T02:58:42;6.55;;;2.65;;
21681;SDS011;11002;48.256;10.084;2023-12-28T03:01:09;5.82;;;2.55;;
21681;SDS011;11002;48.256;10.084;2023-12-28T03:03:36;4.55;;;2.78;;
21681;SDS011;11002;48.256;10.084;2023-12-28T03:06:04;4.72;;;2.70;;
21681;SDS011;11002;48.256;10.084;2023-12-28T03:08:31;3.60;;;2.20;;
21681;SDS011;11002;48.256;10.084;2023-12-28T03:10:58;2.45;;;1.95;;
21681;SDS011;11002;48.256;10.084;2023-12-28T03:13:26;4.40;;;2.58;;
21681;SDS011;11002;48.256;10.084;2023-12-28T03:15:55;3.42;;;2.40;;
21681;SDS011;11002;48.256;10.084;2023-12-28T03:18:22;3.83;;;2.35;;
21681;SDS011;11002;48.256;10.084;2023-12-28T03:20:50;4.93;;;2.70;;
21681;SDS011;11002;48.256;10.084;2023-12-28T03:23:17;5.45;;;3.05;;
21681;SDS011;11002;48.256;10.084;2023-12-28T03:25:44;3.03;;;2.13;;
21681;SDS011;11002;48.256;10.084;2023-12-28T03:28:11;3.55;;;2.65;;
21681;SDS011;11002;48.256;10.084;2023-12-28T03:30:38;7.60;;;3.67;;
21681;SDS011;11002;48.256;10.084;2023-12-28T03:33:08;4.65;;;2.58;;
21681;SDS011;11002;48.256;10.084;2023-12-28T03:35:35;4.07;;;3.13;;
21681;SDS011;11002;48.256;10.084;2023-12-28T03:38:02;7.40;;;3.22;;
21681;SDS011;11002;48.256;10.084;2023-12-28T03:40:30;4.07;;;2.92;;
21681;SDS011;11002;48.256;10.084;2023-12-28T03:42:57;5.20;;;3.15;;
21681;SDS011;11002;48.256;10.084;2023-12-28T03:45:24;5.07;;;2.45;;
21681;SDS011;11002;48.256;10.084;2023-12-28T03:47:51;5.60;;;3.17;;
21681;SDS011;11002;48.256;10.084;2023-12-28T03:50:20;5.57;;;3.00;;
21681;SDS011;11002;48.256;10.084;2023-12-28T03:52:47;4.93;;;2.60;;
21681;SDS011;11002;48.256;10.084;2023-12-28T03:55:14;4.78;;;2.22;;
21681;SDS011;11002;48.256;10.084;2023-12-28T03:57:42;3.95;;;2.60;;
21681;SDS011;11002;48.256;10.084;2023-12-28T04:00:11;4.70;;;2.65;;
21681;SDS011;11002;48.256;10.084;2023-12-28T04:02:40;3.10;;;2.30;;
21681;SDS011;11002;48.256;10.084;2023-12-28T04:05:07;3.13;;;2.15;;
21681;SDS011;11002;48.256;10.084;2023-12-28T04:07:36;2.85;;;1.80;;
21681;SDS011;11002;48.256;10.084;2023-12-28T04:10:03;5.22;;;2.55;;
21681;SDS011;11002;48.256;10.084;2023-12-28T04:12:31;2.88;;;2.10;;
21681;SDS011;11002;48.256;10.084;2023-12-28T04:14:58;4.55;;;2.10;;
21681;SDS011;11002;48.256;10.084;2023-12-28T04:17:25;2.45;;;1.85;;
21681;SDS011;11002;48.256;10.084;2023-12-28T04:19:53;2.85;;;1.90;;
21681;SDS011;11002;48.256;10.084;2023-12-28T04:22:20;4.25;;;2.25;;
21681;SDS011;11002;48.256;10.084;2023-12-28T04:24:49;3.53;;;2.42;;
21681;SDS011;11002;48.256;10.084;2023-12-28T04:27:16;4.00;;;2.47;;
21681;SDS011;11002;48.256;10.084;2023-12-28T04:29:43;3.50;;;2.47;;
21681;SDS011;11002;48.256;10.084;2023-12-28T04:32:12;4.63;;;2.50;;
21681;SDS011;11002;48.256;10.084;2023-12-28T04:34:41;4.03;;;2.58;;
21681;SDS011;11002;48.256;10.084;2023-12-28T04:37:08;3.92;;;2.67;;
21681;SDS011;11002;48.256;10.084;2023-12-28T04:39:35;5.03;;;2.70;;
21681;SDS011;11002;48.256;10.084;2023-12-28T04:42:05;4.72;;;2.58;;
21681;SDS011;11002;48.256;10.084;2023-12-28T04:44:32;4.97;;;2.72;;
21681;SDS011;11002;48.256;10.084;2023-12-28T04:47:04;5.65;;;2.80;;
21681;SDS011;11002;48.256;10.084;2023-12-28T04:49:31;7.40;;;2.50;;
21681;SDS011;11002;48.256;10.084;2023-12-28T04:51:59;4.55;;;2.60;;
21681;SDS011;11002;48.256;10.084;2023-12-28T04:54:27;5.20;;;3.75;;
21681;SDS011;11002;48.256;10.084;2023-12-28T04:56:54;5.53;;;3.15;;
21681;SDS011;11002;48.256;10.084;2023-12-28T04:59:23;6.90;;;3.40;;
21681;SDS011;11002;48.256;10.084;2023-12-28T05:01:50;5.45;;;2.53;;
21681;SDS011;11002;48.256;10.084;2023-12-28T05:04:17;5.18;;;2.42;;
21681;SDS011;11002;48.256;10.084;2023-12-28T05:06:45;3.95;;;2.50;;
21681;SDS011;11002;48.256;10.084;2023-12-28T05:09:13;4.22;;;2.15;;
21681;SDS011;11002;48.256;10.084;2023-12-28T05:11:40;4.63;;;2.70;;
21681;SDS011;11002;48.256;10.084;2023-12-28T05:14:07;4.55;;;3.03;;
21681;SDS011;11002;48.256;10.084;2023-12-28T05:16:36;3.83;;;2.33;;
21681;SDS011;11002;48.256;10.084;2023-12-28T05:19:03;2.85;;;2.00;;
21681;SDS011;11002;48.256;10.084;2023-12-28T05:21:30;6.10;;;2.55;;
21681;SDS011;11002;48.256;10.084;2023-12-28T05:23:57;3.88;;;2.63;;
21681;SDS011;11002;48.256;10.084;2023-12-28T05:26:25;4.20;;;2.45;;
21681;SDS011;11002;48.256;10.084;2023-12-28T05:28:52;3.00;;;1.75;;
21681;SDS011;11002;48.256;10.084;2023-12-28T05:31:19;3.90;;;2.15;;
21681;SDS011;11002;48.256;10.084;2023-12-28T05:33:48;3.58;;;2.40;;
21681;SDS011;11002;48.256;10.084;2023-12-28T05:36:15;4.13;;;2.38;;
21681;SDS011;11002;48.256;10.084;2023-12-28T05:38:43;2.85;;;2.00;;
21681;SDS011;11002;48.256;10.084;2023-12-28T05:41:10;2.97;;;2.38;;
21681;SDS011;11002;48.256;10.084;2023-12-28T05:43:37;5.45;;;2.47;;
21681;SDS011;11002;48.256;10.084;2023-12-28T05:46:05;1.75;;;1.63;;
21681;SDS011;11002;48.256;10.084;2023-12-28T05:48:32;3.40;;;1.67;;
21681;SDS011;11002;48.256;10.084;2023-12-28T05:51:00;4.28;;;2.08;;
21681;SDS011;11002;48.256;10.084;2023-12-28T05:53:28;8.20;;;3.72;;
21681;SDS011;11002;48.256;10.084;2023-12-28T05:55:55;5.20;;;2.97;;
21681;SDS011;11002;48.256;10.084;2023-12-28T05:58:22;7.63;;;2.58;;
21681;SDS011;11002;48.256;10.084;2023-12-28T06:00:49;4.28;;;2.80;;
21681;SDS011;11002;48.256;10.084;2023-12-28T06:03:17;4.55;;;2.45;;
21681;SDS011;11002;48.256;10.084;2023-12-28T06:05:44;7.05;;;2.38;;
21681;SDS011;11002;48.256;10.084;2023-12-28T06:08:12;3.63;;;2.20;;
21681;SDS011;11002;48.256;10.084;2023-12-28T06:10:40;4.47;;;2.33;;
21681;SDS011;11002;48.256;10.084;2023-12-28T06:13:07;4.43;;;2.67;;
21681;SDS011;11002;48.256;10.084;2023-12-28T06:15:34;7.38;;;3.40;;
21681;SDS011;11002;48.256;10.084;2023-12-28T06:18:02;2.92;;;2.13;;
21681;SDS011;11002;48.256;10.084;2023-12-28T06:20:29;4.65;;;2.85;;
21681;SDS011;11002;48.256;10.084;2023-12-28T06:22:57;5.80;;;2.65;;
21681;SDS011;11002;48.256;10.084;2023-12-28T06:25:25;5.85;;;2.67;;
21681;SDS011;11002;48.256;10.084;2023-12-28T06:27:52;4.15;;;3.00;;
21681;SDS011;11002;48.256;10.084;2023-12-28T06:30:20;6.03;;;3.08;;
21681;SDS011;11002;48.256;10.084;2023-12-28T06:32:47;3.88;;;2.50;;
21681;SDS011;11002;48.256;10.084;2023-12-28T06:35:14;8.32;;;3.60;;
21681;SDS011;11002;48.256;10.084;2023-12-28T06:37:42;8.30;;;3.58;;
21681;SDS011;11002;48.256;10.084;2023-12-28T06:40:09;5.68;;;3.17;;
21681;SDS011;11002;48.256;10.084;2023-12-28T06:42:39;5.60;;;3.67;;
21681;SDS011;11002;48.256;10.084;2023-12-28T06:45:08;6.15;;;3.72;;
21681;SDS011;11002;48.256;10.084;2023-12-28T06:47:36;5.93;;;3.30;;
21681;SDS011;11002;48.256;10.084;2023-12-28T06:50:04;9.02;;;5.10;;
21681;SDS011;11002;48.256;10.084;2023-12-28T06:52:32;9.05;;;4.38;;
21681;SDS011;11002;48.256;10.084;2023-12-28T06:54:59;4.72;;;3.10;;
21681;SDS011;11002;48.256;10.084;2023-12-28T06:57:28;5.53;;;3.00;;
21681;SDS011;11002;48.256;10.084;2023-12-28T06:59:56;3.70;;;2.47;;
21681;SDS011;11002;48.256;10.084;2023-12-28T07:02:28;4.05;;;2.58;;
21681;SDS011;11002;48.256;10.084;2023-12-28T07:04:55;5.10;;;3.08;;
21681;SDS011;11002;48.256;10.084;2023-12-28T07:07:22;5.88;;;3.00;;
21681;SDS011;11002;48.256;10.084;2023-12-28T07:09:50;5.30;;;3.08;;
21681;SDS011;11002;48.256;10.084;2023-12-28T07:12:17;6.60;;;3.63;;
21681;SDS011;11002;48.256;10.084;2023-12-28T07:14:45;4.03;;;3.08;;
21681;SDS011;11002;48.256;10.084;2023-12-28T07:17:14;4.63;;;2.97;;
21681;SDS011;11002;48.256;10.084;2023-12-28T07:19:42;5.22;;;3.20;;
21681;SDS011;11002;48.256;10.084;2023-12-28T07:22:10;5.50;;;3.10;;
21681;SDS011;11002;48.256;10.084;2023-12-28T07:24:37;5.63;;;3.38;;
21681;SDS011;11002;48.256;10.084;2023-12-28T07:27:04;6.80;;;3.60;;
21681;SDS011;11002;48.256;10.084;2023-12-28T07:29:31;7.63;;;3.92;;
21681;SDS011;11002;48.256;10.084;2023-12-28T07:31:59;6.18;;;3.35;;
21681;SDS011;11002;48.256;10.084;2023-12-28T07:34:27;6.32;;;3.80;;
21681;SDS011;11002;48.256;10.084;2023-12-28T07:36:54;4.95;;;3.00;;
21681;SDS011;11002;48.256;10.084;2023-12-28T07:39:22;5.20;;;3.55;;
21681;SDS011;11002;48.256;10.084;2023-12-28T07:41:49;6.50;;;3.95;;
21681;SDS011;11002;48.256;10.084;2023-12-28T07:44:16;6.57;;;3.83;;
21681;SDS011;11002;48.256;10.084;2023-12-28T07:46:43;5.00;;;3.47;;
21681;SDS011;11002;48.256;10.084;2023-12-28T07:49:11;6.10;;;4.05;;
21681;SDS011;11002;48.256;10.084;2023-12-28T07:51:39;5.18;;;3.28;;
21681;SDS011;11002;48.256;10.084;2023-12-28T07:54:06;7.03;;;4.07;;
21681;SDS011;11002;48.256;10.084;2023-12-28T07:56:34;9.45;;;4.22;;
21681;SDS011;11002;48.256;10.084;2023-12-28T07:59:01;5.35;;;3.80;;
21681;SDS011;11002;48.256;10.084;2023-12-28T08:01:28;6.47;;;3.28;;
21681;SDS011;11002;48.256;10.084;2023-12-28T08:03:58;7.00;;;3.65;;
21681;SDS011;11002;48.256;10.084;2023-12-28T08:06:26;4.45;;;3.28;;
21681;SDS011;11002;48.256;10.084;2023-12-28T08:08:54;5.32;;;3.47;;
21681;SDS011;11002;48.256;10.084;2023-12-28T08:11:21;7.25;;;4.10;;
21681;SDS011;11002;48.256;10.084;2023-12-28T08:13:49;8.25;;;4.18;;
21681;SDS011;11002;48.256;10.084;2023-12-28T08:16:16;11.25;;;5.43;;
21681;SDS011;11002;48.256;10.084;2023-12-28T08:18:43;10.80;;;5.22;;
21681;SDS011;11002;48.256;10.084;2023-12-28T08:21:10;12.57;;;5.85;;
21681;SDS011;11002;48.256;10.084;2023-12-28T08:23:38;9.05;;;4.90;;
21681;SDS011;11002;48.256;10.084;2023-12-28T08:26:06;19.80;;;10.23;;
21681;SDS011;11002;48.256;10.084;2023-12-28T08:28:33;19.70;;;10.48;;
21681;SDS011;11002;48.256;10.084;2023-12-28T08:31:01;16.77;;;8.27;;
21681;SDS011;11002;48.256;10.084;2023-12-28T08:33:28;10.20;;;5.22;;
21681;SDS011;11002;48.256;10.084;2023-12-28T08:35:55;9.23;;;5.20;;
21681;SDS011;11002;48.256;10.084;2023-12-28T08:38:22;7.63;;;4.72;;
21681;SDS011;11002;48.256;10.084;2023-12-28T08:40:50;9.25;;;4.88;;
21681;SDS011;11002;48.256;10.084;2023-12-28T08:43:18;7.03;;;4.22;;
21681;SDS011;11002;48.256;10.084;2023-12-28T08:45:46;7.68;;;3.65;;
21681;SDS011;11002;48.256;10.084;2023-12-28T08:48:13;5.00;;;3.65;;
21681;SDS011;11002;48.256;10.084;2023-12-28T08:50:40;7.50;;;4.25;;
21681;SDS011;11002;48.256;10.084;2023-12-28T08:53:08;3.47;;;2.88;;
21681;SDS011;11002;48.256;10.084;2023-12-28T08:55:36;5.30;;;4.00;;
21681;SDS011;11002;48.256;10.084;2023-12-28T08:58:03;4.53;;;3.00;;
21681;SDS011;11002;48.256;10.084;2023-12-28T09:00:32;4.65;;;2.72;;
21681;SDS011;11002;48.256;10.084;2023-12-28T09:02:59;5.25;;;3.30;;
21681;SDS011;11002;48.256;10.084;2023-12-28T09:05:26;5.72;;;2.63;;
21681;SDS011;11002;48.256;10.084;2023-12-28T09:07:53;4.88;;;3.13;;
21681;SDS011;11002;48.256;10.084;2023-12-28T09:10:21;5.22;;;3.50;;
21681;SDS011;11002;48.256;10.084;2023-12-28T09:12:48;4.95;;;3.05;;
21681;SDS011;11002;48.256;10.084;2023-12-28T09:15:15;4.97;;;3.28;;
21681;SDS011;11002;48.256;10.084;2023-12-28T09:17:44;8.68;;;3.28;;
21681;SDS011;11002;48.256;10.084;2023-12-28T09:20:11;3.60;;;2.67;;
21681;SDS011;11002;48.256;10.084;2023-12-28T09:22:38;6.10;;;3.35;;
21681;SDS011;11002;48.256;10.084;2023-12-28T09:25:06;6.57;;;3.80;;
21681;SDS011;11002;48.256;10.084;2023-12-28T09:27:34;6.90;;;3.60;;
21681;SDS011;11002;48.256;10.084;2023-12-28T09:30:01;4.75;;;3.35;;
21681;SDS011;11002;48.256;10.084;2023-12-28T09:32:29;9.25;;;4.38;;
21681;SDS011;11002;48.256;10.084;2023-12-28T09:34:58;5.45;;;3.80;;
21681;SDS011;11002;48.256;10.084;2023-12-28T09:37:25;5.32;;;3.67;;
21681;SDS011;11002;48.256;10.084;2023-12-28T09:39:52;6.43;;;3.67;;
21681;SDS011;11002;48.256;10.084;2023-12-28T09:42:22;5.93;;;3.60;;
21681;SDS011;11002;48.256;10.084;2023-12-28T09:44:52;8.88;;;3.50;;
21681;SDS011;11002;48.256;10.084;2023-12-28T09:47:20;4.63;;;3.20;;
21681;SDS011;11002;48.256;10.084;2023-12-28T09:49:47;18.10;;;10.98;;
21681;SDS011;11002;48.256;10.084;2023-12-28T09:52:16;8.38;;;4.43;;
21681;SDS011;11002;48.256;10.084;2023-12-28T09:54:43;7.70;;;4.03;;
21681;SDS011;11002;48.256;10.084;2023-12-28T09:57:11;7.38;;;4.70;;
21681;SDS011;11002;48.256;10.084;2023-12-28T09:59:38;7.03;;;3.85;;
21681;SDS011;11002;48.256;10.084;2023-12-28T10:02:06;4.68;;;2.72;;
21681;SDS011;11002;48.256;10.084;2023-12-28T10:04:34;2.35;;;1.98;;
21681;SDS011;11002;48.256;10.084;2023-12-28T10:07:02;2.25;;;1.50;;
21681;SDS011;11002;48.256;10.084;2023-12-28T10:09:31;2.17;;;1.52;;
21681;SDS011;11002;48.256;10.084;2023-12-28T10:11:59;10.68;;;2.00;;
21681;SDS011;11002;48.256;10.084;2023-12-28T10:14:26;3.60;;;1.65;;
21681;SDS011;11002;48.256;10.084;2023-12-28T10:16:53;1.98;;;1.75;;
21681;SDS011;11002;48.256;10.084;2023-12-28T10:19:21;3.55;;;1.90;;
21681;SDS011;11002;48.256;10.084;2023-12-28T10:21:49;1.95;;;1.60;;
21681;SDS011;11002;48.256;10.084;2023-12-28T10:24:16;2.47;;;1.70;;
21681;SDS011;11002;48.256;10.084;2023-12-28T10:26:45;3.15;;;1.70;;
21681;SDS011;11002;48.256;10.084;2023-12-28T10:29:12;2.30;;;1.40;;
21681;SDS011;11002;48.256;10.084;2023-12-28T10:31:41;2.33;;;1.40;;
21681;SDS011;11002;48.256;10.084;2023-12-28T10:34:10;3.58;;;1.30;;
21681;SDS011;11002;48.256;10.084;2023-12-28T10:36:37;2.95;;;1.98;;
21681;SDS011;11002;48.256;10.084;2023-12-28T10:39:07;1.92;;;1.73;;
21681;SDS011;11002;48.256;10.084;2023-12-28T10:41:38;2.92;;;1.60;;
21681;SDS011;11002;48.256;10.084;2023-12-28T10:44:11;2.13;;;1.77;;
21681;SDS011;11002;48.256;10.084;2023-12-28T10:46:43;2.70;;;1.50;;
21681;SDS011;11002;48.256;10.084;2023-12-28T10:49:13;3.83;;;1.88;;
21681;SDS011;11002;48.256;10.084;2023-12-28T10:51:43;3.45;;;1.75;;
21681;SDS011;11002;48.256;10.084;2023-12-28T10:54:19;2.58;;;1.45;;
21681;SDS011;11002;48.256;10.084;2023-12-28T10:56:55;2.28;;;1.50;;
21681;SDS011;11002;48.256;10.084;2023-12-28T10:59:32;2.53;;;1.42;;
21681;SDS011;11002;48.256;10.084;2023-12-28T11:02:07;1.95;;;1.20;;
21681;SDS011;11002;48.256;10.084;2023-12-28T11:04:37;1.95;;;1.17;;
21681;SDS011;11002;48.256;10.084;2023-12-28T11:07:09;1.58;;;1.23;;
21681;SDS011;11002;48.256;10.084;2023-12-28T11:09:38;1.50;;;1.20;;
21681;SDS011;11002;48.256;10.084;2023-12-28T11:12:08;4.25;;;1.23;;
21681;SDS011;11002;48.256;10.084;2023-12-28T11:14:37;2.90;;;1.00;;
21681;SDS011;11002;48.256;10.084;2023-12-28T11:17:06;1.70;;;1.38;;
21681;SDS011;11002;48.256;10.084;2023-12-28T11:19:33;2.08;;;1.15;;
21681;SDS011;11002;48.256;10.084;2023-12-28T11:22:02;4.15;;;1.73;;
21681;SDS011;11002;48.256;10.084;2023-12-28T11:24:30;2.63;;;1.20;;
21681;SDS011;11002;48.256;10.084;2023-12-28T11:26:58;4.00;;;1.67;;
21681;SDS011;11002;48.256;10.084;2023-12-28T11:29:28;3.63;;;1.55;;
21681;SDS011;11002;48.256;10.084;2023-12-28T11:31:58;2.97;;;1.38;;
21681;SDS011;11002;48.256;10.084;2023-12-28T11:34:28;2.22;;;1.45;;
21681;SDS011;11002;48.256;10.084;2023-12-28T11:36:58;2.35;;;1.25;;
21681;SDS011;11002;48.256;10.084;2023-12-28T11:39:30;2.17;;;1.27;;
21681;SDS011;11002;48.256;10.084;2023-12-28T11:41:59;2.05;;;1.08;;
21681;SDS011;11002;48.256;10.084;2023-12-28T11:44:28;3.55;;;1.20;;
21681;SDS011;11002;48.256;10.084;2023-12-28T11:46:55;1.50;;;1.35;;
21681;SDS011;11002;48.256;10.084;2023-12-28T11:49:25;2.63;;;0.95;;
21681;SDS011;11002;48.256;10.084;2023-12-28T11:51:54;1.70;;;1.13;;
21681;SDS011;11002;48.256;10.084;2023-12-28T11:54:23;1.20;;;0.77;;
21681;SDS011;11002;48.256;10.084;2023-12-28T11:56:51;2.30;;;1.05;;
21681;SDS011;11002;48.256;10.084;2023-12-28T11:59:19;1.15;;;1.08;;
21681;SDS011;11002;48.256;10.084;2023-12-28T12:01:49;3.97;;;1.02;;
21681;SDS011;11002;48.256;10.084;2023-12-28T12:04:18;3.72;;;1.05;;
21681;SDS011;11002;48.256;10.084;2023-12-28T12:06:46;1.92;;;1.10;;
21681;SDS011;11002;48.256;10.084;2023-12-28T12:09:13;1.35;;;0.90;;
21681;SDS011;11002;48.256;10.084;2023-12-28T12:11:41;1.20;;;0.80;;
21681;SDS011;11002;48.256;10.084;2023-12-28T12:14:08;1.27;;;0.82;;
21681;SDS011;11002;48.256;10.084;2023-12-28T12:16:36;0.90;;;0.65;;
21681;SDS011;11002;48.256;10.084;2023-12-28T12:19:04;1.17;;;0.80;;
21681;SDS011;11002;48.256;10.084;2023-12-28T12:21:34;1.17;;;0.90;;
21681;SDS011;11002;48.256;10.084;2023-12-28T12:24:02;2.38;;;1.05;;
21681;SDS011;11002;48.256;10.084;2023-12-28T12:26:30;1.80;;;1.02;;
21681;SDS011;11002;48.256;10.084;2023-12-28T12:28:57;1.60;;;0.88;;
21681;SDS011;11002;48.256;10.084;2023-12-28T12:31:25;1.52;;;1.05;;
21681;SDS011;11002;48.256;10.084;2023-12-28T12:33:52;0.70;;;0.70;;
21681;SDS011;11002;48.256;10.084;2023-12-28T12:36:20;2.78;;;1.20;;
21681;SDS011;11002;48.256;10.084;2023-12-28T12:38:49;0.63;;;0.63;;
21681;SDS011;11002;48.256;10.084;2023-12-28T12:41:16;1.50;;;0.90;;
21681;SDS011;11002;48.256;10.084;2023-12-28T12:43:44;1.98;;;1.02;;
21681;SDS011;11002;48.256;10.084;2023-12-28T12:46:12;1.55;;;0.85;;
21681;SDS011;11002;48.256;10.084;2023-12-28T12:48:39;1.48;;;0.90;;
21681;SDS011;11002;48.256;10.084;2023-12-28T12:51:06;5.53;;;0.80;;
21681;SDS011;11002;48.256;10.084;2023-12-28T12:53:35;2.00;;;0.75;;
21681;SDS011;11002;48.256;10.084;2023-12-28T12:56:04;1.38;;;0.85;;
21681;SDS011;11002;48.256;10.084;2023-12-28T12:58:33;1.90;;;1.05;;
21681;SDS011;11002;48.256;10.084;2023-12-28T13:01:01;1.15;;;0.82;;
21681;SDS011;11002;48.256;10.084;2023-12-28T13:03:28;1.20;;;1.05;;
21681;SDS011;11002;48.256;10.084;2023-12-28T13:05:56;1.13;;;0.68;;
21681;SDS011;11002;48.256;10.084;2023-12-28T13:08:23;1.50;;;0.90;;
21681;SDS011;11002;48.256;10.084;2023-12-28T13:10:51;1.23;;;0.85;;
21681;SDS011;11002;48.256;10.084;2023-12-28T13:13:19;1.23;;;1.10;;
21681;SDS011;11002;48.256;10.084;2023-12-28T13:15:46;1.73;;;1.00;;
21681;SDS011;11002;48.256;10.084;2023-12-28T13:18:14;0.93;;;0.82;;
21681;SDS011;11002;48.256;10.084;2023-12-28T13:20:41;4.25;;;0.80;;
21681;SDS011;11002;48.256;10.084;2023-12-28T13:23:10;2.17;;;0.88;;
21681;SDS011;11002;48.256;10.084;2023-12-28T13:25:37;2.17;;;1.05;;
21681;SDS011;11002;48.256;10.084;2023-12-28T13:28:04;2.00;;;1.02;;
21681;SDS011;11002;48.256;10.084;2023-12-28T13:30:33;1.20;;;0.80;;
21681;SDS011;11002;48.256;10.084;2023-12-28T13:33:02;1.52;;;0.82;;
21681;SDS011;11002;48.256;10.084;2023-12-28T13:35:30;1.23;;;1.13;;
21681;SDS011;11002;48.256;10.084;2023-12-28T13:37:58;0.93;;;0.90;;
21681;SDS011;11002;48.256;10.084;2023-12-28T13:40:26;1.65;;;1.25;;
21681;SDS011;11002;48.256;10.084;2023-12-28T13:42:53;3.90;;;1.42;;
21681;SDS011;11002;48.256;10.084;2023-12-28T13:45:21;1.80;;;1.33;;
21681;SDS011;11002;48.256;10.084;2023-12-28T13:47:49;2.60;;;1.40;;
21681;SDS011;11002;48.256;10.084;2023-12-28T13:50:16;1.27;;;1.08;;
21681;SDS011;11002;48.256;10.084;2023-12-28T13:52:45;4.20;;;1.05;;
21681;SDS011;11002;48.256;10.084;2023-12-28T13:55:12;1.30;;;0.88;;
21681;SDS011;11002;48.256;10.084;2023-12-28T13:57:39;3.35;;;1.17;;
21681;SDS011;11002;48.256;10.084;2023-12-28T14:00:07;1.10;;;0.95;;
21681;SDS011;11002;48.256;10.084;2023-12-28T14:02:39;1.00;;;0.75;;
21681;SDS011;11002;48.256;10.084;2023-12-28T14:05:08;1.42;;;1.20;;
21681;SDS011;11002;48.256;10.084;2023-12-28T14:07:35;2.03;;;1.35;;
21681;SDS011;11002;48.256;10.084;2023-12-28T14:10:03;1.98;;;1.17;;
21681;SDS011;11002;48.256;10.084;2023-12-28T14:12:31;1.92;;;0.93;;
21681;SDS011;11002;48.256;10.084;2023-12-28T14:14:58;5.35;;;1.17;;
21681;SDS011;11002;48.256;10.084;2023-12-28T14:17:25;4.00;;;1.75;;
21681;SDS011;11002;48.256;10.084;2023-12-28T14:19:52;5.85;;;3.17;;
21681;SDS011;11002;48.256;10.084;2023-12-28T14:22:21;8.73;;;3.50;;
21681;SDS011;11002;48.256;10.084;2023-12-28T14:24:49;4.75;;;2.20;;
21681;SDS011;11002;48.256;10.084;2023-12-28T14:27:18;2.15;;;1.70;;
21681;SDS011;11002;48.256;10.084;2023-12-28T14:29:45;2.10;;;1.45;;
21681;SDS011;11002;48.256;10.084;2023-12-28T14:32:13;1.25;;;1.10;;
21681;SDS011;11002;48.256;10.084;2023-12-28T14:34:41;1.40;;;1.08;;
21681;SDS011;11002;48.256;10.084;2023-12-28T14:37:08;1.63;;;0.95;;